sensor_id;sensor_type;location;lat;lon;timestamp;P1;durP1;ratioP1;P2;durP2;ratioP2
72205;SDS011;60111;48.286;7.812;2023-07-29T00:02:20;2.70;;;1.47;;
72205;SDS011;60111;48.286;7.812;2023-07-29T00:04:53;3.62;;;1.20;;
72205;SDS011;60111;48.286;7.812;2023-07-29T00:07:26;2.17;;;1.40;;
72205;SDS011;60111;48.286;7.812;2023-07-29T00:09:59;2.17;;;1.42;;
72205;SDS011;60111;48.286;7.812;2023-07-29T00:12:32;2.95;;;1.15;;
72205;SDS011;60111;48.286;7.812;2023-07-29T00:15:04;4.15;;;1.32;;
72205;SDS011;60111;48.286;7.812;2023-07-29T00:17:38;2.53;;;1.30;;
72205;SDS011;60111;48.286;7.812;2023-07-29T00:20:11;2.02;;;1.30;;
72205;SDS011;60111;48.286;7.812;2023-07-29T00:22:43;3.12;;;1.30;;
72205;SDS011;60111;48.286;7.812;2023-07-29T00:25:16;1.25;;;1.15;;
72205;SDS011;60111;48.286;7.812;2023-07-29T00:27:49;1.40;;;1.10;;
72205;SDS011;60111;48.286;7.812;2023-07-29T00:30:21;3.33;;;1.30;;
72205;SDS011;60111;48.286;7.812;2023-07-29T00:32:54;1.72;;;1.10;;
72205;SDS011;60111;48.286;7.812;2023-07-29T00:35:26;1.55;;;1.22;;
72205;SDS011;60111;48.286;7.812;2023-07-29T00:37:59;2.15;;;1.30;;
72205;SDS011;60111;48.286;7.812;2023-07-29T00:40:32;1.32;;;1.20;;
72205;SDS011;60111;48.286;7.812;2023-07-29T00:43:08;5.92;;;1.30;;
72205;SDS011;60111;48.286;7.812;2023-07-29T00:45:40;2.75;;;1.20;;
72205;SDS011;60111;48.286;7.812;2023-07-29T00:48:15;2.77;;;1.30;;
72205;SDS011;60111;48.286;7.812;2023-07-29T00:50:48;2.08;;;0.90;;
72205;SDS011;60111;48.286;7.812;2023-07-29T00:53:21;5.80;;;1.33;;
72205;SDS011;60111;48.286;7.812;2023-07-29T00:55:54;2.02;;;1.20;;
72205;SDS011;60111;48.286;7.812;2023-07-29T00:58:26;1.85;;;1.20;;
72205;SDS011;60111;48.286;7.812;2023-07-29T01:00:59;2.67;;;1.20;;
72205;SDS011;60111;48.286;7.812;2023-07-29T01:03:32;3.85;;;1.12;;
72205;SDS011;60111;48.286;7.812;2023-07-29T01:06:17;0.90;;;0.90;;
72205;SDS011;60111;48.286;7.812;2023-07-29T01:09:02;3.25;;;1.50;;
72205;SDS011;60111;48.286;7.812;2023-07-29T01:11:48;1.25;;;1.15;;
72205;SDS011;60111;48.286;7.812;2023-07-29T01:17:01;2.40;;;1.20;;
72205;SDS011;60111;48.286;7.812;2023-07-29T01:22:36;2.97;;;1.33;;
72205;SDS011;60111;48.286;7.812;2023-07-29T01:25:10;2.60;;;1.30;;
72205;SDS011;60111;48.286;7.812;2023-07-29T01:27:44;3.92;;;1.10;;
72205;SDS011;60111;48.286;7.812;2023-07-29T01:30:18;1.40;;;1.17;;
72205;SDS011;60111;48.286;7.812;2023-07-29T01:32:54;1.20;;;1.10;;
72205;SDS011;60111;48.286;7.812;2023-07-29T01:35:32;1.00;;;1.00;;
72205;SDS011;60111;48.286;7.812;2023-07-29T01:38:27;1.52;;;1.20;;
72205;SDS011;60111;48.286;7.812;2023-07-29T01:40:55;2.08;;;1.37;;
72205;SDS011;60111;48.286;7.812;2023-07-29T01:43:29;1.37;;;1.27;;
72205;SDS011;60111;48.286;7.812;2023-07-29T01:46:03;1.40;;;1.30;;
72205;SDS011;60111;48.286;7.812;2023-07-29T01:48:35;3.47;;;1.20;;
72205;SDS011;60111;48.286;7.812;2023-07-29T01:51:08;1.42;;;1.07;;
72205;SDS011;60111;48.286;7.812;2023-07-29T01:53:42;1.75;;;1.10;;
72205;SDS011;60111;48.286;7.812;2023-07-29T01:56:15;1.52;;;1.10;;
72205;SDS011;60111;48.286;7.812;2023-07-29T01:58:47;1.57;;;1.20;;
72205;SDS011;60111;48.286;7.812;2023-07-29T02:01:20;1.20;;;1.10;;
72205;SDS011;60111;48.286;7.812;2023-07-29T02:03:52;3.13;;;1.30;;
72205;SDS011;60111;48.286;7.812;2023-07-29T02:06:27;3.98;;;1.35;;
72205;SDS011;60111;48.286;7.812;2023-07-29T02:08:59;3.12;;;1.40;;
72205;SDS011;60111;48.286;7.812;2023-07-29T02:11:32;2.30;;;1.17;;
72205;SDS011;60111;48.286;7.812;2023-07-29T02:14:04;5.30;;;1.30;;
72205;SDS011;60111;48.286;7.812;2023-07-29T02:16:37;1.25;;;1.10;;
72205;SDS011;60111;48.286;7.812;2023-07-29T02:19:10;1.40;;;1.20;;
72205;SDS011;60111;48.286;7.812;2023-07-29T02:21:42;1.40;;;1.30;;
72205;SDS011;60111;48.286;7.812;2023-07-29T02:24:15;1.60;;;1.30;;
72205;SDS011;60111;48.286;7.812;2023-07-29T02:26:47;3.22;;;1.50;;
72205;SDS011;60111;48.286;7.812;2023-07-29T02:29:20;3.35;;;1.25;;
72205;SDS011;60111;48.286;7.812;2023-07-29T02:31:52;0.90;;;0.90;;
72205;SDS011;60111;48.286;7.812;2023-07-29T02:34:25;2.87;;;1.22;;
72205;SDS011;60111;48.286;7.812;2023-07-29T02:36:57;3.07;;;1.37;;
72205;SDS011;60111;48.286;7.812;2023-07-29T02:39:30;1.65;;;1.37;;
72205;SDS011;60111;48.286;7.812;2023-07-29T02:42:03;2.27;;;1.40;;
72205;SDS011;60111;48.286;7.812;2023-07-29T02:44:36;2.87;;;1.40;;
72205;SDS011;60111;48.286;7.812;2023-07-29T02:47:08;1.30;;;1.20;;
72205;SDS011;60111;48.286;7.812;2023-07-29T02:49:41;1.62;;;1.32;;
72205;SDS011;60111;48.286;7.812;2023-07-29T02:52:13;1.60;;;1.30;;
72205;SDS011;60111;48.286;7.812;2023-07-29T02:54:46;1.70;;;1.20;;
72205;SDS011;60111;48.286;7.812;2023-07-29T02:57:18;3.95;;;1.30;;
72205;SDS011;60111;48.286;7.812;2023-07-29T02:59:51;1.70;;;1.30;;
72205;SDS011;60111;48.286;7.812;2023-07-29T03:02:24;4.05;;;1.35;;
72205;SDS011;60111;48.286;7.812;2023-07-29T03:04:57;1.45;;;1.35;;
72205;SDS011;60111;48.286;7.812;2023-07-29T03:07:29;2.10;;;1.15;;
72205;SDS011;60111;48.286;7.812;2023-07-29T03:10:02;2.08;;;1.30;;
72205;SDS011;60111;48.286;7.812;2023-07-29T03:12:35;1.67;;;1.30;;
72205;SDS011;60111;48.286;7.812;2023-07-29T03:15:07;2.12;;;1.92;;
72205;SDS011;60111;48.286;7.812;2023-07-29T03:17:40;1.60;;;1.50;;
72205;SDS011;60111;48.286;7.812;2023-07-29T03:20:13;1.67;;;1.57;;
72205;SDS011;60111;48.286;7.812;2023-07-29T03:22:45;2.72;;;1.72;;
72205;SDS011;60111;48.286;7.812;2023-07-29T03:25:18;3.02;;;1.50;;
72205;SDS011;60111;48.286;7.812;2023-07-29T03:27:51;4.67;;;1.62;;
72205;SDS011;60111;48.286;7.812;2023-07-29T03:30:23;4.15;;;1.67;;
72205;SDS011;60111;48.286;7.812;2023-07-29T03:32:56;3.00;;;1.47;;
72205;SDS011;60111;48.286;7.812;2023-07-29T03:35:29;4.42;;;1.80;;
72205;SDS011;60111;48.286;7.812;2023-07-29T03:38:02;2.77;;;1.57;;
72205;SDS011;60111;48.286;7.812;2023-07-29T03:40:34;3.77;;;1.87;;
72205;SDS011;60111;48.286;7.812;2023-07-29T03:43:07;2.20;;;1.72;;
72205;SDS011;60111;48.286;7.812;2023-07-29T03:45:40;3.27;;;1.50;;
72205;SDS011;60111;48.286;7.812;2023-07-29T03:48:12;2.60;;;1.70;;
72205;SDS011;60111;48.286;7.812;2023-07-29T03:50:45;2.37;;;1.50;;
72205;SDS011;60111;48.286;7.812;2023-07-29T03:53:17;7.15;;;2.05;;
72205;SDS011;60111;48.286;7.812;2023-07-29T03:55:50;2.20;;;1.90;;
72205;SDS011;60111;48.286;7.812;2023-07-29T03:58:23;1.87;;;1.60;;
72205;SDS011;60111;48.286;7.812;2023-07-29T04:00:55;2.98;;;1.95;;
72205;SDS011;60111;48.286;7.812;2023-07-29T04:03:28;2.37;;;2.10;;
72205;SDS011;60111;48.286;7.812;2023-07-29T04:06:00;2.27;;;1.80;;
72205;SDS011;60111;48.286;7.812;2023-07-29T04:08:33;2.02;;;1.80;;
72205;SDS011;60111;48.286;7.812;2023-07-29T04:11:05;2.30;;;1.90;;
72205;SDS011;60111;48.286;7.812;2023-07-29T04:13:38;1.70;;;1.60;;
72205;SDS011;60111;48.286;7.812;2023-07-29T04:16:11;2.58;;;1.80;;
72205;SDS011;60111;48.286;7.812;2023-07-29T04:18:44;1.90;;;1.60;;
72205;SDS011;60111;48.286;7.812;2023-07-29T04:21:16;3.27;;;2.05;;
72205;SDS011;60111;48.286;7.812;2023-07-29T04:23:49;2.45;;;1.60;;
72205;SDS011;60111;48.286;7.812;2023-07-29T04:26:21;5.85;;;1.57;;
72205;SDS011;60111;48.286;7.812;2023-07-29T04:28:54;2.95;;;1.80;;
72205;SDS011;60111;48.286;7.812;2023-07-29T04:31:26;4.45;;;1.57;;
72205;SDS011;60111;48.286;7.812;2023-07-29T04:34:00;1.90;;;1.70;;
72205;SDS011;60111;48.286;7.812;2023-07-29T04:36:33;1.60;;;1.50;;
72205;SDS011;60111;48.286;7.812;2023-07-29T04:39:06;3.33;;;1.80;;
72205;SDS011;60111;48.286;7.812;2023-07-29T04:41:38;1.70;;;1.60;;
72205;SDS011;60111;48.286;7.812;2023-07-29T04:44:11;3.40;;;1.82;;
72205;SDS011;60111;48.286;7.812;2023-07-29T04:46:43;5.97;;;1.90;;
72205;SDS011;60111;48.286;7.812;2023-07-29T04:49:16;1.80;;;1.60;;
72205;SDS011;60111;48.286;7.812;2023-07-29T04:51:49;3.90;;;2.00;;
72205;SDS011;60111;48.286;7.812;2023-07-29T04:54:22;3.98;;;1.80;;
72205;SDS011;60111;48.286;7.812;2023-07-29T04:56:54;5.85;;;1.90;;
72205;SDS011;60111;48.286;7.812;2023-07-29T04:59:27;3.60;;;1.83;;
72205;SDS011;60111;48.286;7.812;2023-07-29T05:02:00;2.52;;;1.50;;
72205;SDS011;60111;48.286;7.812;2023-07-29T05:04:32;4.45;;;1.77;;
72205;SDS011;60111;48.286;7.812;2023-07-29T05:07:05;2.95;;;2.00;;
72205;SDS011;60111;48.286;7.812;2023-07-29T05:09:38;4.53;;;2.05;;
72205;SDS011;60111;48.286;7.812;2023-07-29T05:12:10;1.77;;;1.60;;
72205;SDS011;60111;48.286;7.812;2023-07-29T05:14:43;3.00;;;1.70;;
72205;SDS011;60111;48.286;7.812;2023-07-29T05:17:17;5.60;;;1.70;;
72205;SDS011;60111;48.286;7.812;2023-07-29T05:19:49;2.50;;;1.87;;
72205;SDS011;60111;48.286;7.812;2023-07-29T05:22:22;2.03;;;1.63;;
72205;SDS011;60111;48.286;7.812;2023-07-29T05:24:55;2.67;;;1.83;;
72205;SDS011;60111;48.286;7.812;2023-07-29T05:27:28;2.87;;;1.80;;
72205;SDS011;60111;48.286;7.812;2023-07-29T05:30:00;6.65;;;2.10;;
72205;SDS011;60111;48.286;7.812;2023-07-29T05:32:33;4.85;;;1.80;;
72205;SDS011;60111;48.286;7.812;2023-07-29T05:35:06;11.43;;;2.42;;
72205;SDS011;60111;48.286;7.812;2023-07-29T05:37:39;6.17;;;2.60;;
72205;SDS011;60111;48.286;7.812;2023-07-29T05:40:12;7.50;;;2.45;;
72205;SDS011;60111;48.286;7.812;2023-07-29T05:42:44;3.72;;;2.33;;
72205;SDS011;60111;48.286;7.812;2023-07-29T05:45:18;4.78;;;2.55;;
72205;SDS011;60111;48.286;7.812;2023-07-29T05:47:51;6.33;;;2.67;;
72205;SDS011;60111;48.286;7.812;2023-07-29T05:50:24;6.70;;;2.50;;
72205;SDS011;60111;48.286;7.812;2023-07-29T05:52:57;5.33;;;2.58;;
72205;SDS011;60111;48.286;7.812;2023-07-29T05:55:30;2.55;;;2.20;;
72205;SDS011;60111;48.286;7.812;2023-07-29T05:58:02;5.90;;;2.67;;
72205;SDS011;60111;48.286;7.812;2023-07-29T06:00:35;4.20;;;2.60;;
72205;SDS011;60111;48.286;7.812;2023-07-29T06:03:07;5.37;;;2.55;;
72205;SDS011;60111;48.286;7.812;2023-07-29T06:05:40;5.08;;;2.60;;
72205;SDS011;60111;48.286;7.812;2023-07-29T06:08:12;4.65;;;2.55;;
72205;SDS011;60111;48.286;7.812;2023-07-29T06:10:45;5.30;;;2.35;;
72205;SDS011;60111;48.286;7.812;2023-07-29T06:13:18;2.72;;;2.30;;
72205;SDS011;60111;48.286;7.812;2023-07-29T06:15:50;5.05;;;2.58;;
72205;SDS011;60111;48.286;7.812;2023-07-29T06:18:23;7.07;;;2.70;;
72205;SDS011;60111;48.286;7.812;2023-07-29T06:20:55;6.33;;;2.33;;
72205;SDS011;60111;48.286;7.812;2023-07-29T06:23:28;5.47;;;2.30;;
72205;SDS011;60111;48.286;7.812;2023-07-29T06:26:01;4.73;;;2.53;;
72205;SDS011;60111;48.286;7.812;2023-07-29T06:28:34;3.83;;;2.47;;
72205;SDS011;60111;48.286;7.812;2023-07-29T06:31:06;4.65;;;2.20;;
72205;SDS011;60111;48.286;7.812;2023-07-29T06:33:39;3.95;;;2.40;;
72205;SDS011;60111;48.286;7.812;2023-07-29T06:36:11;6.58;;;2.65;;
72205;SDS011;60111;48.286;7.812;2023-07-29T06:38:44;3.55;;;2.67;;
72205;SDS011;60111;48.286;7.812;2023-07-29T06:41:17;4.65;;;2.75;;
72205;SDS011;60111;48.286;7.812;2023-07-29T06:43:49;4.53;;;2.75;;
72205;SDS011;60111;48.286;7.812;2023-07-29T06:46:22;4.35;;;2.80;;
72205;SDS011;60111;48.286;7.812;2023-07-29T06:51:46;3.90;;;2.37;;
72205;SDS011;60111;48.286;7.812;2023-07-29T06:54:19;3.60;;;2.47;;
72205;SDS011;60111;48.286;7.812;2023-07-29T06:56:53;5.70;;;2.30;;
72205;SDS011;60111;48.286;7.812;2023-07-29T06:59:26;4.15;;;2.60;;
72205;SDS011;60111;48.286;7.812;2023-07-29T07:01:58;3.92;;;2.45;;
72205;SDS011;60111;48.286;7.812;2023-07-29T07:04:31;3.52;;;2.40;;
72205;SDS011;60111;48.286;7.812;2023-07-29T07:07:04;2.55;;;2.35;;
72205;SDS011;60111;48.286;7.812;2023-07-29T07:09:36;6.33;;;2.40;;
72205;SDS011;60111;48.286;7.812;2023-07-29T07:12:09;4.40;;;2.50;;
72205;SDS011;60111;48.286;7.812;2023-07-29T07:14:41;3.58;;;2.40;;
72205;SDS011;60111;48.286;7.812;2023-07-29T07:17:14;4.00;;;2.20;;
72205;SDS011;60111;48.286;7.812;2023-07-29T07:19:46;3.40;;;2.25;;
72205;SDS011;60111;48.286;7.812;2023-07-29T07:22:19;4.87;;;2.60;;
72205;SDS011;60111;48.286;7.812;2023-07-29T07:24:52;3.40;;;2.65;;
72205;SDS011;60111;48.286;7.812;2023-07-29T07:27:24;3.37;;;2.35;;
72205;SDS011;60111;48.286;7.812;2023-07-29T07:29:57;3.20;;;2.40;;
72205;SDS011;60111;48.286;7.812;2023-07-29T07:32:30;7.40;;;2.37;;
72205;SDS011;60111;48.286;7.812;2023-07-29T07:35:03;2.62;;;2.40;;
72205;SDS011;60111;48.286;7.812;2023-07-29T07:37:35;10.50;;;2.45;;
72205;SDS011;60111;48.286;7.812;2023-07-29T07:40:08;3.30;;;2.73;;
72205;SDS011;60111;48.286;7.812;2023-07-29T07:42:41;4.73;;;2.27;;
72205;SDS011;60111;48.286;7.812;2023-07-29T07:45:14;4.45;;;2.20;;
72205;SDS011;60111;48.286;7.812;2023-07-29T07:47:48;3.87;;;2.60;;
72205;SDS011;60111;48.286;7.812;2023-07-29T07:50:24;5.42;;;2.42;;
72205;SDS011;60111;48.286;7.812;2023-07-29T07:52:56;4.30;;;2.20;;
72205;SDS011;60111;48.286;7.812;2023-07-29T07:55:30;5.28;;;2.10;;
72205;SDS011;60111;48.286;7.812;2023-07-29T07:58:03;6.28;;;2.08;;
72205;SDS011;60111;48.286;7.812;2023-07-29T08:00:35;4.83;;;2.12;;
72205;SDS011;60111;48.286;7.812;2023-07-29T08:03:08;5.37;;;2.20;;
72205;SDS011;60111;48.286;7.812;2023-07-29T08:05:40;3.77;;;2.08;;
72205;SDS011;60111;48.286;7.812;2023-07-29T08:08:13;2.10;;;1.90;;
72205;SDS011;60111;48.286;7.812;2023-07-29T08:10:45;4.12;;;1.98;;
72205;SDS011;60111;48.286;7.812;2023-07-29T08:13:18;3.02;;;2.08;;
72205;SDS011;60111;48.286;7.812;2023-07-29T08:15:51;2.42;;;2.15;;
72205;SDS011;60111;48.286;7.812;2023-07-29T08:20:57;2.65;;;2.00;;
72205;SDS011;60111;48.286;7.812;2023-07-29T08:23:35;2.47;;;2.00;;
72205;SDS011;60111;48.286;7.812;2023-07-29T08:26:08;6.67;;;2.33;;
72205;SDS011;60111;48.286;7.812;2023-07-29T08:28:40;2.20;;;2.00;;
72205;SDS011;60111;48.286;7.812;2023-07-29T08:31:13;3.47;;;1.90;;
72205;SDS011;60111;48.286;7.812;2023-07-29T08:33:46;2.58;;;1.87;;
72205;SDS011;60111;48.286;7.812;2023-07-29T08:36:18;2.93;;;2.07;;
72205;SDS011;60111;48.286;7.812;2023-07-29T08:38:51;2.87;;;1.87;;
72205;SDS011;60111;48.286;7.812;2023-07-29T08:41:27;3.60;;;1.80;;
72205;SDS011;60111;48.286;7.812;2023-07-29T08:44:20;1.92;;;1.77;;
72205;SDS011;60111;48.286;7.812;2023-07-29T08:49:22;2.30;;;2.02;;
72205;SDS011;60111;48.286;7.812;2023-07-29T08:51:55;2.77;;;1.90;;
72205;SDS011;60111;48.286;7.812;2023-07-29T08:54:30;2.75;;;1.95;;
72205;SDS011;60111;48.286;7.812;2023-07-29T08:57:03;4.83;;;2.15;;
72205;SDS011;60111;48.286;7.812;2023-07-29T08:59:37;3.87;;;2.00;;
72205;SDS011;60111;48.286;7.812;2023-07-29T09:05:03;2.65;;;1.80;;
72205;SDS011;60111;48.286;7.812;2023-07-29T09:07:36;2.37;;;2.10;;
72205;SDS011;60111;48.286;7.812;2023-07-29T09:10:10;2.03;;;1.83;;
72205;SDS011;60111;48.286;7.812;2023-07-29T09:12:44;2.27;;;1.72;;
72205;SDS011;60111;48.286;7.812;2023-07-29T09:15:29;2.95;;;1.52;;
72205;SDS011;60111;48.286;7.812;2023-07-29T09:18:14;5.78;;;2.02;;
72205;SDS011;60111;48.286;7.812;2023-07-29T09:20:44;1.82;;;1.72;;
72205;SDS011;60111;48.286;7.812;2023-07-29T09:23:19;2.12;;;1.77;;
72205;SDS011;60111;48.286;7.812;2023-07-29T09:25:52;3.40;;;2.10;;
72205;SDS011;60111;48.286;7.812;2023-07-29T09:28:36;2.10;;;1.85;;
72205;SDS011;60111;48.286;7.812;2023-07-29T09:31:18;4.35;;;1.95;;
72205;SDS011;60111;48.286;7.812;2023-07-29T09:33:58;2.05;;;1.80;;
72205;SDS011;60111;48.286;7.812;2023-07-29T09:36:32;3.22;;;2.15;;
72205;SDS011;60111;48.286;7.812;2023-07-29T09:39:10;3.67;;;1.62;;
72205;SDS011;60111;48.286;7.812;2023-07-29T09:41:50;2.70;;;1.70;;
72205;SDS011;60111;48.286;7.812;2023-07-29T09:44:23;2.67;;;1.80;;
72205;SDS011;60111;48.286;7.812;2023-07-29T09:46:55;2.10;;;1.75;;
72205;SDS011;60111;48.286;7.812;2023-07-29T09:49:28;3.65;;;1.90;;
72205;SDS011;60111;48.286;7.812;2023-07-29T09:52:04;3.40;;;2.00;;
72205;SDS011;60111;48.286;7.812;2023-07-29T09:54:38;3.37;;;1.90;;
72205;SDS011;60111;48.286;7.812;2023-07-29T09:57:11;2.02;;;1.60;;
72205;SDS011;60111;48.286;7.812;2023-07-29T09:59:55;2.17;;;1.97;;
72205;SDS011;60111;48.286;7.812;2023-07-29T10:02:28;3.17;;;1.80;;
72205;SDS011;60111;48.286;7.812;2023-07-29T10:05:02;2.92;;;2.20;;
72205;SDS011;60111;48.286;7.812;2023-07-29T10:07:37;2.67;;;1.93;;
72205;SDS011;60111;48.286;7.812;2023-07-29T10:10:10;5.77;;;1.93;;
72205;SDS011;60111;48.286;7.812;2023-07-29T10:12:44;1.70;;;1.60;;
72205;SDS011;60111;48.286;7.812;2023-07-29T10:15:17;3.57;;;2.13;;
72205;SDS011;60111;48.286;7.812;2023-07-29T10:17:50;4.05;;;1.75;;
72205;SDS011;60111;48.286;7.812;2023-07-29T10:20:23;2.23;;;1.83;;
72205;SDS011;60111;48.286;7.812;2023-07-29T10:22:56;2.05;;;1.65;;
72205;SDS011;60111;48.286;7.812;2023-07-29T10:25:37;2.92;;;1.80;;
72205;SDS011;60111;48.286;7.812;2023-07-29T10:28:12;3.42;;;1.90;;
72205;SDS011;60111;48.286;7.812;2023-07-29T10:30:47;3.90;;;1.77;;
72205;SDS011;60111;48.286;7.812;2023-07-29T10:33:20;2.67;;;1.57;;
72205;SDS011;60111;48.286;7.812;2023-07-29T10:35:53;1.98;;;1.80;;
72205;SDS011;60111;48.286;7.812;2023-07-29T10:38:26;4.77;;;1.73;;
72205;SDS011;60111;48.286;7.812;2023-07-29T10:40:59;2.40;;;1.73;;
72205;SDS011;60111;48.286;7.812;2023-07-29T10:43:32;2.17;;;1.67;;
72205;SDS011;60111;48.286;7.812;2023-07-29T10:46:15;3.70;;;1.67;;
72205;SDS011;60111;48.286;7.812;2023-07-29T10:48:56;2.15;;;1.57;;
72205;SDS011;60111;48.286;7.812;2023-07-29T10:51:29;1.72;;;1.62;;
72205;SDS011;60111;48.286;7.812;2023-07-29T10:54:09;3.00;;;1.90;;
72205;SDS011;60111;48.286;7.812;2023-07-29T10:56:47;3.17;;;1.67;;
72205;SDS011;60111;48.286;7.812;2023-07-29T11:01:59;2.70;;;1.80;;
72205;SDS011;60111;48.286;7.812;2023-07-29T11:04:32;1.70;;;1.50;;
72205;SDS011;60111;48.286;7.812;2023-07-29T11:12:44;2.20;;;1.62;;
72205;SDS011;60111;48.286;7.812;2023-07-29T11:18:00;1.67;;;1.57;;
72205;SDS011;60111;48.286;7.812;2023-07-29T11:23:05;1.77;;;1.32;;
72205;SDS011;60111;48.286;7.812;2023-07-29T11:25:38;2.23;;;1.77;;
72205;SDS011;60111;48.286;7.812;2023-07-29T11:28:10;3.83;;;1.65;;
72205;SDS011;60111;48.286;7.812;2023-07-29T11:30:43;3.08;;;1.57;;
72205;SDS011;60111;48.286;7.812;2023-07-29T11:33:17;3.25;;;2.10;;
72205;SDS011;60111;48.286;7.812;2023-07-29T11:35:51;1.72;;;1.62;;
72205;SDS011;60111;48.286;7.812;2023-07-29T11:38:24;2.73;;;1.70;;
72205;SDS011;60111;48.286;7.812;2023-07-29T11:41:00;1.60;;;1.50;;
72205;SDS011;60111;48.286;7.812;2023-07-29T11:43:36;2.27;;;1.70;;
72205;SDS011;60111;48.286;7.812;2023-07-29T11:46:09;2.58;;;1.67;;
72205;SDS011;60111;48.286;7.812;2023-07-29T11:48:44;2.08;;;1.87;;
72205;SDS011;60111;48.286;7.812;2023-07-29T11:51:16;6.23;;;1.70;;
72205;SDS011;60111;48.286;7.812;2023-07-29T11:53:49;2.15;;;1.55;;
72205;SDS011;60111;48.286;7.812;2023-07-29T11:56:22;3.00;;;1.60;;
72205;SDS011;60111;48.286;7.812;2023-07-29T11:58:55;1.85;;;1.57;;
72205;SDS011;60111;48.286;7.812;2023-07-29T12:01:28;1.80;;;1.65;;
72205;SDS011;60111;48.286;7.812;2023-07-29T12:04:02;4.85;;;1.50;;
72205;SDS011;60111;48.286;7.812;2023-07-29T12:06:35;2.90;;;1.70;;
72205;SDS011;60111;48.286;7.812;2023-07-29T12:09:09;1.90;;;1.70;;
72205;SDS011;60111;48.286;7.812;2023-07-29T12:11:41;1.95;;;1.80;;
72205;SDS011;60111;48.286;7.812;2023-07-29T12:14:16;1.98;;;1.80;;
72205;SDS011;60111;48.286;7.812;2023-07-29T12:19:22;1.70;;;1.60;;
72205;SDS011;60111;48.286;7.812;2023-07-29T12:21:56;1.57;;;1.47;;
72205;SDS011;60111;48.286;7.812;2023-07-29T12:24:32;2.27;;;1.80;;
72205;SDS011;60111;48.286;7.812;2023-07-29T12:27:09;1.70;;;1.60;;
72205;SDS011;60111;48.286;7.812;2023-07-29T12:30:00;1.85;;;1.67;;
72205;SDS011;60111;48.286;7.812;2023-07-29T12:32:42;2.45;;;1.67;;
72205;SDS011;60111;48.286;7.812;2023-07-29T12:35:16;2.23;;;1.80;;
72205;SDS011;60111;48.286;7.812;2023-07-29T12:37:58;1.75;;;1.52;;
72205;SDS011;60111;48.286;7.812;2023-07-29T12:40:31;1.60;;;1.50;;
72205;SDS011;60111;48.286;7.812;2023-07-29T12:43:03;1.70;;;1.60;;
72205;SDS011;60111;48.286;7.812;2023-07-29T12:45:36;3.27;;;1.70;;
72205;SDS011;60111;48.286;7.812;2023-07-29T12:48:11;1.55;;;1.30;;
72205;SDS011;60111;48.286;7.812;2023-07-29T12:50:43;1.40;;;1.30;;
72205;SDS011;60111;48.286;7.812;2023-07-29T12:53:17;1.70;;;1.60;;
72205;SDS011;60111;48.286;7.812;2023-07-29T12:55:49;4.05;;;1.75;;
72205;SDS011;60111;48.286;7.812;2023-07-29T12:58:22;1.55;;;1.45;;
72205;SDS011;60111;48.286;7.812;2023-07-29T13:00:54;2.83;;;1.90;;
72205;SDS011;60111;48.286;7.812;2023-07-29T13:03:27;2.30;;;1.70;;
72205;SDS011;60111;48.286;7.812;2023-07-29T13:05:59;2.08;;;1.87;;
72205;SDS011;60111;48.286;7.812;2023-07-29T13:08:32;3.67;;;1.62;;
72205;SDS011;60111;48.286;7.812;2023-07-29T13:11:04;3.75;;;1.72;;
72205;SDS011;60111;48.286;7.812;2023-07-29T13:13:37;2.95;;;1.87;;
72205;SDS011;60111;48.286;7.812;2023-07-29T13:16:10;1.98;;;1.60;;
72205;SDS011;60111;48.286;7.812;2023-07-29T13:18:44;2.25;;;1.60;;
72205;SDS011;60111;48.286;7.812;2023-07-29T13:21:16;1.70;;;1.60;;
72205;SDS011;60111;48.286;7.812;2023-07-29T13:23:49;1.70;;;1.50;;
72205;SDS011;60111;48.286;7.812;2023-07-29T13:26:21;2.30;;;1.70;;
72205;SDS011;60111;48.286;7.812;2023-07-29T13:28:54;6.65;;;1.70;;
72205;SDS011;60111;48.286;7.812;2023-07-29T13:31:27;2.62;;;1.62;;
72205;SDS011;60111;48.286;7.812;2023-07-29T13:33:59;1.70;;;1.60;;
72205;SDS011;60111;48.286;7.812;2023-07-29T13:36:32;2.05;;;1.80;;
72205;SDS011;60111;48.286;7.812;2023-07-29T13:39:04;1.67;;;1.57;;
72205;SDS011;60111;48.286;7.812;2023-07-29T13:41:37;1.70;;;1.60;;
72205;SDS011;60111;48.286;7.812;2023-07-29T13:44:09;4.00;;;1.60;;
72205;SDS011;60111;48.286;7.812;2023-07-29T13:46:42;2.57;;;1.50;;
72205;SDS011;60111;48.286;7.812;2023-07-29T13:49:15;1.82;;;1.67;;
72205;SDS011;60111;48.286;7.812;2023-07-29T13:51:47;2.15;;;1.75;;
72205;SDS011;60111;48.286;7.812;2023-07-29T13:54:20;1.70;;;1.60;;
72205;SDS011;60111;48.286;7.812;2023-07-29T13:56:52;1.52;;;1.42;;
72205;SDS011;60111;48.286;7.812;2023-07-29T13:59:25;3.55;;;1.80;;
72205;SDS011;60111;48.286;7.812;2023-07-29T14:01:57;2.55;;;1.92;;
72205;SDS011;60111;48.286;7.812;2023-07-29T14:04:36;4.20;;;1.85;;
72205;SDS011;60111;48.286;7.812;2023-07-29T14:07:05;1.70;;;1.60;;
72205;SDS011;60111;48.286;7.812;2023-07-29T14:09:38;2.00;;;1.80;;
72205;SDS011;60111;48.286;7.812;2023-07-29T14:12:11;2.40;;;1.87;;
72205;SDS011;60111;48.286;7.812;2023-07-29T14:14:46;2.87;;;1.80;;
72205;SDS011;60111;48.286;7.812;2023-07-29T14:17:18;1.70;;;1.57;;
72205;SDS011;60111;48.286;7.812;2023-07-29T14:19:51;1.85;;;1.62;;
72205;SDS011;60111;48.286;7.812;2023-07-29T14:22:23;2.20;;;1.70;;
72205;SDS011;60111;48.286;7.812;2023-07-29T14:24:56;1.82;;;1.72;;
72205;SDS011;60111;48.286;7.812;2023-07-29T14:27:28;2.30;;;1.80;;
72205;SDS011;60111;48.286;7.812;2023-07-29T14:30:01;2.12;;;1.60;;
72205;SDS011;60111;48.286;7.812;2023-07-29T14:32:34;2.33;;;1.73;;
72205;SDS011;60111;48.286;7.812;2023-07-29T14:35:08;1.83;;;1.60;;
72205;SDS011;60111;48.286;7.812;2023-07-29T14:37:40;1.90;;;1.70;;
72205;SDS011;60111;48.286;7.812;2023-07-29T14:40:13;2.98;;;1.60;;
72205;SDS011;60111;48.286;7.812;2023-07-29T14:42:46;2.60;;;1.70;;
72205;SDS011;60111;48.286;7.812;2023-07-29T14:45:27;4.60;;;1.80;;
72205;SDS011;60111;48.286;7.812;2023-07-29T14:47:59;2.12;;;1.70;;
72205;SDS011;60111;48.286;7.812;2023-07-29T14:50:32;1.80;;;1.62;;
72205;SDS011;60111;48.286;7.812;2023-07-29T14:53:05;2.22;;;1.60;;
72205;SDS011;60111;48.286;7.812;2023-07-29T14:55:37;3.03;;;2.00;;
72205;SDS011;60111;48.286;7.812;2023-07-29T14:58:10;2.90;;;1.82;;
72205;SDS011;60111;48.286;7.812;2023-07-29T15:00:43;2.02;;;1.60;;
72205;SDS011;60111;48.286;7.812;2023-07-29T15:03:15;2.40;;;1.70;;
72205;SDS011;60111;48.286;7.812;2023-07-29T15:05:48;2.05;;;1.70;;
72205;SDS011;60111;48.286;7.812;2023-07-29T15:08:21;2.10;;;1.70;;
72205;SDS011;60111;48.286;7.812;2023-07-29T15:10:55;2.37;;;1.82;;
72205;SDS011;60111;48.286;7.812;2023-07-29T15:13:28;2.42;;;2.00;;
72205;SDS011;60111;48.286;7.812;2023-07-29T15:16:01;6.33;;;2.37;;
72205;SDS011;60111;48.286;7.812;2023-07-29T15:18:34;2.17;;;1.73;;
72205;SDS011;60111;48.286;7.812;2023-07-29T15:21:06;9.47;;;2.50;;
72205;SDS011;60111;48.286;7.812;2023-07-29T15:23:40;3.00;;;2.53;;
72205;SDS011;60111;48.286;7.812;2023-07-29T15:26:13;6.75;;;2.70;;
72205;SDS011;60111;48.286;7.812;2023-07-29T15:28:45;2.75;;;2.55;;
72205;SDS011;60111;48.286;7.812;2023-07-29T15:31:18;3.70;;;2.80;;
72205;SDS011;60111;48.286;7.812;2023-07-29T15:33:51;4.58;;;3.08;;
72205;SDS011;60111;48.286;7.812;2023-07-29T15:36:24;4.80;;;2.60;;
72205;SDS011;60111;48.286;7.812;2023-07-29T15:38:56;3.50;;;2.00;;
72205;SDS011;60111;48.286;7.812;2023-07-29T15:41:31;2.87;;;2.17;;
72205;SDS011;60111;48.286;7.812;2023-07-29T15:44:05;2.47;;;2.27;;
72205;SDS011;60111;48.286;7.812;2023-07-29T15:46:38;4.65;;;2.80;;
72205;SDS011;60111;48.286;7.812;2023-07-29T15:49:11;3.70;;;2.45;;
72205;SDS011;60111;48.286;7.812;2023-07-29T15:51:43;2.60;;;2.40;;
72205;SDS011;60111;48.286;7.812;2023-07-29T15:54:16;5.15;;;2.47;;
72205;SDS011;60111;48.286;7.812;2023-07-29T15:56:49;3.70;;;2.40;;
72205;SDS011;60111;48.286;7.812;2023-07-29T15:59:21;3.52;;;2.80;;